Augusta, Texas
Current Conditions -  °F | °C
As of 11:35 PM on Friday 19 Dec 2014 (Local Time) from KDKR Reporting Station
Overcast Overcast  
Wind Chill: 52°   Ceiling: 600
Heat Index: 52°   Visibility: NA
Dew Point: 52°   Wind: 7mph
Humidity: 100%   Direction: 20°NNE
Pressure: 30.2"   Gusts: NA
Location:  31.4982°N, 95.4177°W
Report Text: KDKR 200535Z AUTO 02006KT OVC006 11/11 A3020 RMK AO2
Loading
Personal Weather Stations






























Interactive Weather Map New forecast layout! Learn more

10-Day Weather Forecast

Advertisements
Track Severe Weather on mobile